PST,Max TemperatureF,Mean TemperatureF,Min TemperatureF,Max Dew PointF,MeanDew PointF,Min DewpointF,Max Humidity, Mean Humidity, Min Humidity, Max Sea Level PressureIn, Mean Sea Level PressureIn, Min Sea Level PressureIn, Max VisibilityMiles, Mean VisibilityMiles, Min VisibilityMiles, Max Wind SpeedMPH, Mean Wind SpeedMPH, Max Gust SpeedMPH,PrecipitationIn, CloudCover, Events, WindDirDegrees
2012-11-1,59,54,50,54,52,50,100,93,77,30.04,29.88,29.73,10,9,2,13,6,20,0.53,8,Rain,172
2012-11-2,59,52,46,54,51,46,100,97,73,30.06,30.01,29.97,10,4,1,7,2,,0.23,6,Rain,323
2012-11-3,60,56,51,55,53,52,100,94,77,30.20,30.06,29.97,10,9,4,18,4,23,0.02,8,Rain,180
2012-11-4,66,60,53,61,57,54,100,92,73,30.28,30.23,30.17,10,8,4,15,5,24,0.11,8,Rain,175
2012-11-5,60,51,42,59,51,41,100,92,48,30.40,30.34,30.19,10,8,0,12,7,17,0.05,4,Fog-Rain,347
2012-11-6,56,48,39,54,46,39,100,96,82,30.17,30.05,29.99,10,6,0,14,3,17,0.02,6,Fog-Rain,193
2012-11-7,53,44,32,45,40,32,99,85,56,30.16,30.10,29.96,10,10,10,12,8,,0.00,1,,183
2012-11-8,49,38,26,40,32,27,100,94,63,29.95,29.86,29.82,10,5,0,16,2,18,0.00,2,Fog,116
2012-11-9,47,36,26,40,29,26,100,90,50,29.98,29.90,29.86,10,6,0,8,1,,0.00,0,Fog,168
2012-11-10,45,34,24,32,27,23,100,85,46,30.24,30.13,29.98,10,10,10,6,2,,0.00,2,,188
2012-11-11,46,37,28,45,37,27,100,88,71,30.25,30.18,30.06,10,10,5,9,1,,0.64,7,Rain,159
2012-11-12,55,50,44,48,46,44,100,95,72,30.24,30.14,30.07,10,8,3,13,3,,0.07,8,Rain,196
2012-11-13,51,48,45,50,48,46,100,97,86,30.23,30.18,30.14,10,10,7,6,2,,0.14,8,Rain,147
2012-11-14,51,42,33,48,42,32,100,96,82,30.33,30.28,30.18,10,6,0,8,3,,0.00,4,Fog,186
2012-11-15,45,38,32,43,39,32,100,98,87,30.26,30.10,29.95,10,2,0,6,2,,0.00,8,Fog,159
2012-11-16,45,38,32,46,38,32,100,99,93,29.96,29.89,29.71,10,5,0,6,2,,0.18,7,Fog-Rain,197
2012-11-17,57,48,39,48,44,39,100,91,63,29.74,29.61,29.50,10,7,2,17,5,23,0.33,6,Rain,186
2012-11-18,50,46,41,45,42,39,100,87,71,29.77,29.68,29.52,10,10,7,18,9,28,0.36,6,Rain,173
2012-11-19,55,50,43,54,49,43,100,91,77,29.70,29.50,29.37,10,8,1,31,15,38,1.73,7,Rain,188
2012-11-20,52,44,35,48,42,36,100,94,78,29.70,29.63,29.54,10,6,0,20,4,29,0.11,4,Fog-Rain,143
2012-11-21,47,42,35,41,40,35,99,89,76,30.32,29.87,29.52,10,10,4,25,11,43,0.27,6,Rain,193
2012-11-22,47,38,30,42,35,30,100,97,75,30.38,30.33,30.23,10,5,0,5,1,,0.02,3,Fog-Rain,125
2012-11-23,50,46,41,50,46,41,100,99,93,30.23,30.09,30.04,10,6,2,13,4,,0.73,8,Rain,144
2012-11-24,46,40,35,46,41,36,100,97,87,30.29,30.24,30.18,10,5,0,8,3,,0.01,5,Fog-Rain,178
2012-11-25,45,38,32,43,37,32,100,97,77,30.35,30.29,30.20,10,3,0,12,2,,0.00,4,Fog,97
2012-11-26,49,38,28,45,32,28,100,98,62,30.23,30.14,30.06,10,3,0,5,1,,0.00,3,Fog,141
2012-11-27,46,37,28,43,35,27,100,97,73,30.11,30.01,29.90,10,4,0,5,2,,0.00,2,Fog,183
2012-11-28,43,38,32,43,37,32,100,99,93,29.90,29.75,29.61,10,2,0,7,2,,0.07,5,Fog-Rain,170
2012-11-29,54,46,38,50,43,38,100,87,71,29.71,29.57,29.45,10,9,3,13,5,,0.10,6,Rain,141
2012-11-30,57,50,42,50,47,41,100,95,61,29.49,29.43,29.37,10,8,1,20,5,31,1.04,7,Rain,152